sensor_id;sensor_type;location;lat;lon;timestamp;P1;durP1;ratioP1;P2;durP2;ratioP2
18689;SDS011;9782;52.930;15.562;2023-02-15T00:12:48;41.73;;;21.87;;
18689;SDS011;9782;52.930;15.562;2023-02-15T00:17:50;44.63;;;22.33;;
18689;SDS011;9782;52.930;15.562;2023-02-15T00:20:17;45.80;;;22.13;;
18689;SDS011;9782;52.930;15.562;2023-02-15T00:22:44;46.80;;;22.67;;
18689;SDS011;9782;52.930;15.562;2023-02-15T00:25:11;47.40;;;22.47;;
18689;SDS011;9782;52.930;15.562;2023-02-15T00:27:38;43.93;;;22.67;;
18689;SDS011;9782;52.930;15.562;2023-02-15T00:30:07;52.53;;;23.53;;
18689;SDS011;9782;52.930;15.562;2023-02-15T00:32:34;44.10;;;21.60;;
18689;SDS011;9782;52.930;15.562;2023-02-15T00:35:01;48.70;;;22.77;;
18689;SDS011;9782;52.930;15.562;2023-02-15T00:37:27;43.27;;;23.10;;
18689;SDS011;9782;52.930;15.562;2023-02-15T00:39:54;43.93;;;21.63;;
18689;SDS011;9782;52.930;15.562;2023-02-15T00:42:21;45.63;;;22.43;;
18689;SDS011;9782;52.930;15.562;2023-02-15T00:44:48;45.73;;;22.90;;
18689;SDS011;9782;52.930;15.562;2023-02-15T00:47:16;45.13;;;22.23;;
18689;SDS011;9782;52.930;15.562;2023-02-15T00:49:43;44.30;;;21.80;;
18689;SDS011;9782;52.930;15.562;2023-02-15T00:52:10;40.47;;;20.40;;
18689;SDS011;9782;52.930;15.562;2023-02-15T00:54:36;45.57;;;22.77;;
18689;SDS011;9782;52.930;15.562;2023-02-15T00:57:03;45.67;;;22.73;;
18689;SDS011;9782;52.930;15.562;2023-02-15T00:59:30;46.87;;;22.83;;
18689;SDS011;9782;52.930;15.562;2023-02-15T01:01:57;44.67;;;22.03;;
18689;SDS011;9782;52.930;15.562;2023-02-15T01:04:25;44.27;;;21.83;;
18689;SDS011;9782;52.930;15.562;2023-02-15T01:06:52;44.20;;;22.17;;
18689;SDS011;9782;52.930;15.562;2023-02-15T01:09:19;49.40;;;22.50;;
18689;SDS011;9782;52.930;15.562;2023-02-15T01:11:45;45.00;;;22.37;;
18689;SDS011;9782;52.930;15.562;2023-02-15T01:14:12;45.40;;;22.37;;
18689;SDS011;9782;52.930;15.562;2023-02-15T01:16:39;42.17;;;21.07;;
18689;SDS011;9782;52.930;15.562;2023-02-15T01:19:06;45.40;;;22.47;;
18689;SDS011;9782;52.930;15.562;2023-02-15T01:21:34;42.73;;;22.20;;
18689;SDS011;9782;52.930;15.562;2023-02-15T01:24:01;46.43;;;22.80;;
18689;SDS011;9782;52.930;15.562;2023-02-15T01:26:28;44.77;;;23.27;;
18689;SDS011;9782;52.930;15.562;2023-02-15T01:28:55;46.43;;;22.47;;
18689;SDS011;9782;52.930;15.562;2023-02-15T01:31:22;48.27;;;23.30;;
18689;SDS011;9782;52.930;15.562;2023-02-15T01:33:49;56.73;;;24.30;;
18689;SDS011;9782;52.930;15.562;2023-02-15T01:36:16;47.10;;;23.00;;
18689;SDS011;9782;52.930;15.562;2023-02-15T01:38:44;50.33;;;24.03;;
18689;SDS011;9782;52.930;15.562;2023-02-15T01:41:11;47.30;;;22.73;;
18689;SDS011;9782;52.930;15.562;2023-02-15T01:43:51;48.93;;;22.90;;
18689;SDS011;9782;52.930;15.562;2023-02-15T01:46:20;41.43;;;21.47;;
18689;SDS011;9782;52.930;15.562;2023-02-15T01:48:50;37.87;;;19.80;;
18689;SDS011;9782;52.930;15.562;2023-02-15T01:51:21;40.70;;;20.97;;
18689;SDS011;9782;52.930;15.562;2023-02-15T01:53:55;41.10;;;21.57;;
18689;SDS011;9782;52.930;15.562;2023-02-15T01:56:26;41.60;;;21.40;;
18689;SDS011;9782;52.930;15.562;2023-02-15T01:58:56;41.63;;;21.57;;
18689;SDS011;9782;52.930;15.562;2023-02-15T02:01:25;45.50;;;22.60;;
18689;SDS011;9782;52.930;15.562;2023-02-15T02:03:56;46.50;;;22.93;;
18689;SDS011;9782;52.930;15.562;2023-02-15T02:06:26;45.77;;;22.77;;
18689;SDS011;9782;52.930;15.562;2023-02-15T02:08:55;49.27;;;22.10;;
18689;SDS011;9782;52.930;15.562;2023-02-15T02:11:23;51.40;;;24.00;;
18689;SDS011;9782;52.930;15.562;2023-02-15T02:13:50;53.27;;;23.93;;
18689;SDS011;9782;52.930;15.562;2023-02-15T02:16:20;53.93;;;24.43;;
18689;SDS011;9782;52.930;15.562;2023-02-15T02:18:54;45.97;;;22.23;;
18689;SDS011;9782;52.930;15.562;2023-02-15T02:21:36;44.07;;;21.20;;
18689;SDS011;9782;52.930;15.562;2023-02-15T02:27:21;36.27;;;19.27;;
18689;SDS011;9782;52.930;15.562;2023-02-15T02:32:53;35.57;;;18.93;;
18689;SDS011;9782;52.930;15.562;2023-02-15T02:35:38;38.13;;;19.17;;
18689;SDS011;9782;52.930;15.562;2023-02-15T02:38:11;40.37;;;19.70;;
18689;SDS011;9782;52.930;15.562;2023-02-15T02:40:49;40.90;;;19.80;;
18689;SDS011;9782;52.930;15.562;2023-02-15T02:43:27;41.87;;;20.10;;
18689;SDS011;9782;52.930;15.562;2023-02-15T02:46:00;42.47;;;20.93;;
18689;SDS011;9782;52.930;15.562;2023-02-15T02:48:33;43.07;;;21.07;;
18689;SDS011;9782;52.930;15.562;2023-02-15T02:51:00;44.83;;;21.53;;
18689;SDS011;9782;52.930;15.562;2023-02-15T02:53:27;40.57;;;21.50;;
18689;SDS011;9782;52.930;15.562;2023-02-15T02:55:57;46.73;;;21.27;;
18689;SDS011;9782;52.930;15.562;2023-02-15T02:58:31;38.10;;;20.60;;
18689;SDS011;9782;52.930;15.562;2023-02-15T03:01:03;41.70;;;21.17;;
18689;SDS011;9782;52.930;15.562;2023-02-15T03:03:37;44.63;;;21.40;;
18689;SDS011;9782;52.930;15.562;2023-02-15T03:06:08;39.00;;;20.63;;
18689;SDS011;9782;52.930;15.562;2023-02-15T03:08:40;44.47;;;22.30;;
18689;SDS011;9782;52.930;15.562;2023-02-15T03:11:08;45.50;;;22.00;;
18689;SDS011;9782;52.930;15.562;2023-02-15T03:13:37;45.73;;;23.57;;
18689;SDS011;9782;52.930;15.562;2023-02-15T03:16:04;44.20;;;21.47;;
18689;SDS011;9782;52.930;15.562;2023-02-15T03:19:05;43.43;;;20.97;;
18689;SDS011;9782;52.930;15.562;2023-02-15T03:21:36;43.83;;;21.17;;
18689;SDS011;9782;52.930;15.562;2023-02-15T03:24:07;48.03;;;22.63;;
18689;SDS011;9782;52.930;15.562;2023-02-15T03:26:36;40.43;;;21.33;;
18689;SDS011;9782;52.930;15.562;2023-02-15T03:29:05;42.03;;;21.70;;
18689;SDS011;9782;52.930;15.562;2023-02-15T03:31:34;45.13;;;22.27;;
18689;SDS011;9782;52.930;15.562;2023-02-15T03:34:12;43.83;;;21.77;;
18689;SDS011;9782;52.930;15.562;2023-02-15T03:36:43;40.00;;;21.03;;
18689;SDS011;9782;52.930;15.562;2023-02-15T03:39:15;46.40;;;22.43;;
18689;SDS011;9782;52.930;15.562;2023-02-15T03:41:46;41.67;;;20.53;;
18689;SDS011;9782;52.930;15.562;2023-02-15T03:44:20;39.17;;;19.97;;
18689;SDS011;9782;52.930;15.562;2023-02-15T03:46:52;40.77;;;19.90;;
18689;SDS011;9782;52.930;15.562;2023-02-15T03:49:26;41.07;;;21.60;;
18689;SDS011;9782;52.930;15.562;2023-02-15T03:51:59;43.50;;;21.60;;
18689;SDS011;9782;52.930;15.562;2023-02-15T03:54:29;50.00;;;21.30;;
18689;SDS011;9782;52.930;15.562;2023-02-15T03:57:09;42.33;;;21.03;;
18689;SDS011;9782;52.930;15.562;2023-02-15T03:59:52;43.23;;;21.10;;
18689;SDS011;9782;52.930;15.562;2023-02-15T04:02:38;43.77;;;21.93;;
18689;SDS011;9782;52.930;15.562;2023-02-15T04:05:12;45.57;;;21.70;;
18689;SDS011;9782;52.930;15.562;2023-02-15T04:07:39;42.10;;;21.63;;
18689;SDS011;9782;52.930;15.562;2023-02-15T04:10:06;47.50;;;23.27;;
18689;SDS011;9782;52.930;15.562;2023-02-15T04:12:50;47.30;;;21.83;;
18689;SDS011;9782;52.930;15.562;2023-02-15T04:15:17;45.37;;;22.80;;
18689;SDS011;9782;52.930;15.562;2023-02-15T04:18:01;44.63;;;21.70;;
18689;SDS011;9782;52.930;15.562;2023-02-15T04:20:30;46.63;;;21.93;;
18689;SDS011;9782;52.930;15.562;2023-02-15T04:23:14;46.20;;;23.17;;
18689;SDS011;9782;52.930;15.562;2023-02-15T04:25:58;45.60;;;22.37;;
18689;SDS011;9782;52.930;15.562;2023-02-15T04:28:29;48.67;;;25.20;;
18689;SDS011;9782;52.930;15.562;2023-02-15T04:30:56;50.83;;;24.93;;
18689;SDS011;9782;52.930;15.562;2023-02-15T04:33:23;50.50;;;23.50;;
18689;SDS011;9782;52.930;15.562;2023-02-15T04:35:51;51.03;;;23.63;;
18689;SDS011;9782;52.930;15.562;2023-02-15T04:38:18;49.13;;;23.23;;
18689;SDS011;9782;52.930;15.562;2023-02-15T04:40:48;45.57;;;23.30;;
18689;SDS011;9782;52.930;15.562;2023-02-15T04:43:16;54.13;;;23.33;;
18689;SDS011;9782;52.930;15.562;2023-02-15T04:45:47;48.50;;;24.53;;
18689;SDS011;9782;52.930;15.562;2023-02-15T04:48:14;50.70;;;24.13;;
18689;SDS011;9782;52.930;15.562;2023-02-15T04:50:42;53.43;;;24.80;;
18689;SDS011;9782;52.930;15.562;2023-02-15T04:53:10;57.73;;;26.13;;
18689;SDS011;9782;52.930;15.562;2023-02-15T04:55:37;52.37;;;23.67;;
18689;SDS011;9782;52.930;15.562;2023-02-15T04:58:04;52.70;;;24.50;;
18689;SDS011;9782;52.930;15.562;2023-02-15T05:00:31;44.20;;;22.23;;
18689;SDS011;9782;52.930;15.562;2023-02-15T05:02:58;49.13;;;23.53;;
18689;SDS011;9782;52.930;15.562;2023-02-15T05:05:25;46.30;;;23.40;;
18689;SDS011;9782;52.930;15.562;2023-02-15T05:07:51;47.77;;;23.23;;
18689;SDS011;9782;52.930;15.562;2023-02-15T05:10:20;51.07;;;23.50;;
18689;SDS011;9782;52.930;15.562;2023-02-15T05:12:47;47.83;;;23.73;;
18689;SDS011;9782;52.930;15.562;2023-02-15T05:15:14;49.03;;;23.63;;
18689;SDS011;9782;52.930;15.562;2023-02-15T05:17:41;49.10;;;22.77;;
18689;SDS011;9782;52.930;15.562;2023-02-15T05:20:08;49.20;;;23.10;;
18689;SDS011;9782;52.930;15.562;2023-02-15T05:22:35;43.67;;;22.47;;
18689;SDS011;9782;52.930;15.562;2023-02-15T05:25:02;48.53;;;23.20;;
18689;SDS011;9782;52.930;15.562;2023-02-15T05:27:48;51.43;;;23.20;;
18689;SDS011;9782;52.930;15.562;2023-02-15T05:30:29;49.67;;;23.03;;
18689;SDS011;9782;52.930;15.562;2023-02-15T05:32:55;44.50;;;22.13;;
18689;SDS011;9782;52.930;15.562;2023-02-15T05:35:22;46.97;;;22.87;;
18689;SDS011;9782;52.930;15.562;2023-02-15T05:37:49;47.80;;;22.47;;
18689;SDS011;9782;52.930;15.562;2023-02-15T05:40:16;46.37;;;22.97;;
18689;SDS011;9782;52.930;15.562;2023-02-15T05:42:43;46.07;;;22.67;;
18689;SDS011;9782;52.930;15.562;2023-02-15T05:45:11;49.70;;;22.93;;
18689;SDS011;9782;52.930;15.562;2023-02-15T05:47:38;47.83;;;22.60;;
18689;SDS011;9782;52.930;15.562;2023-02-15T05:50:05;44.63;;;22.27;;
18689;SDS011;9782;52.930;15.562;2023-02-15T05:52:33;43.43;;;21.77;;
18689;SDS011;9782;52.930;15.562;2023-02-15T05:55:00;47.83;;;22.33;;
18689;SDS011;9782;52.930;15.562;2023-02-15T05:57:27;49.90;;;23.20;;
18689;SDS011;9782;52.930;15.562;2023-02-15T05:59:54;46.33;;;22.40;;
18689;SDS011;9782;52.930;15.562;2023-02-15T06:02:23;48.37;;;23.03;;
18689;SDS011;9782;52.930;15.562;2023-02-15T06:04:49;51.13;;;23.33;;
18689;SDS011;9782;52.930;15.562;2023-02-15T06:07:16;50.23;;;23.03;;
18689;SDS011;9782;52.930;15.562;2023-02-15T06:09:43;49.80;;;23.77;;
18689;SDS011;9782;52.930;15.562;2023-02-15T06:12:10;50.47;;;24.13;;
18689;SDS011;9782;52.930;15.562;2023-02-15T06:14:37;49.37;;;23.47;;
18689;SDS011;9782;52.930;15.562;2023-02-15T06:17:05;48.20;;;22.87;;
18689;SDS011;9782;52.930;15.562;2023-02-15T06:19:33;48.73;;;22.90;;
18689;SDS011;9782;52.930;15.562;2023-02-15T06:22:00;52.07;;;23.33;;
18689;SDS011;9782;52.930;15.562;2023-02-15T06:24:27;54.00;;;24.07;;
18689;SDS011;9782;52.930;15.562;2023-02-15T06:26:54;57.67;;;24.50;;
18689;SDS011;9782;52.930;15.562;2023-02-15T06:29:21;50.40;;;23.37;;
18689;SDS011;9782;52.930;15.562;2023-02-15T06:31:48;48.50;;;22.77;;
18689;SDS011;9782;52.930;15.562;2023-02-15T06:34:15;55.00;;;23.97;;
18689;SDS011;9782;52.930;15.562;2023-02-15T06:36:43;53.50;;;24.13;;
18689;SDS011;9782;52.930;15.562;2023-02-15T06:39:10;53.73;;;23.70;;
18689;SDS011;9782;52.930;15.562;2023-02-15T06:41:37;48.33;;;23.13;;
18689;SDS011;9782;52.930;15.562;2023-02-15T06:44:05;50.17;;;24.13;;
18689;SDS011;9782;52.930;15.562;2023-02-15T06:46:32;48.40;;;23.33;;
18689;SDS011;9782;52.930;15.562;2023-02-15T06:48:59;56.87;;;27.17;;
18689;SDS011;9782;52.930;15.562;2023-02-15T06:51:26;65.93;;;30.00;;
18689;SDS011;9782;52.930;15.562;2023-02-15T06:53:54;64.37;;;30.17;;
18689;SDS011;9782;52.930;15.562;2023-02-15T06:56:21;57.87;;;26.17;;
18689;SDS011;9782;52.930;15.562;2023-02-15T06:58:48;63.10;;;26.70;;
18689;SDS011;9782;52.930;15.562;2023-02-15T07:01:15;56.67;;;25.40;;
18689;SDS011;9782;52.930;15.562;2023-02-15T07:03:42;58.73;;;29.20;;
18689;SDS011;9782;52.930;15.562;2023-02-15T07:06:09;63.33;;;30.50;;
18689;SDS011;9782;52.930;15.562;2023-02-15T07:08:36;59.17;;;30.00;;
18689;SDS011;9782;52.930;15.562;2023-02-15T07:11:05;57.50;;;28.83;;
18689;SDS011;9782;52.930;15.562;2023-02-15T07:13:50;60.27;;;27.93;;
18689;SDS011;9782;52.930;15.562;2023-02-15T07:16:18;53.83;;;26.43;;
18689;SDS011;9782;52.930;15.562;2023-02-15T07:18:45;54.13;;;26.27;;
18689;SDS011;9782;52.930;15.562;2023-02-15T07:21:12;59.63;;;27.90;;
18689;SDS011;9782;52.930;15.562;2023-02-15T07:23:39;56.87;;;27.00;;
18689;SDS011;9782;52.930;15.562;2023-02-15T07:26:08;57.17;;;25.73;;
18689;SDS011;9782;52.930;15.562;2023-02-15T07:28:35;53.57;;;25.37;;
18689;SDS011;9782;52.930;15.562;2023-02-15T07:31:02;63.70;;;28.10;;
18689;SDS011;9782;52.930;15.562;2023-02-15T07:33:29;72.17;;;33.47;;
18689;SDS011;9782;52.930;15.562;2023-02-15T07:35:57;152.27;;;75.00;;
18689;SDS011;9782;52.930;15.562;2023-02-15T07:38:26;79.87;;;38.47;;
18689;SDS011;9782;52.930;15.562;2023-02-15T07:40:57;62.93;;;30.13;;
18689;SDS011;9782;52.930;15.562;2023-02-15T07:43:25;69.93;;;32.30;;
18689;SDS011;9782;52.930;15.562;2023-02-15T07:45:52;77.57;;;34.13;;
18689;SDS011;9782;52.930;15.562;2023-02-15T07:48:19;70.10;;;31.70;;
18689;SDS011;9782;52.930;15.562;2023-02-15T07:50:47;68.20;;;30.37;;
18689;SDS011;9782;52.930;15.562;2023-02-15T07:53:14;76.40;;;32.83;;
18689;SDS011;9782;52.930;15.562;2023-02-15T07:55:41;80.27;;;34.57;;
18689;SDS011;9782;52.930;15.562;2023-02-15T07:58:08;66.17;;;30.00;;
18689;SDS011;9782;52.930;15.562;2023-02-15T08:00:36;66.87;;;29.07;;
18689;SDS011;9782;52.930;15.562;2023-02-15T08:03:17;76.13;;;34.63;;
18689;SDS011;9782;52.930;15.562;2023-02-15T08:05:44;79.57;;;34.20;;
18689;SDS011;9782;52.930;15.562;2023-02-15T08:08:12;76.27;;;34.27;;
18689;SDS011;9782;52.930;15.562;2023-02-15T08:10:59;73.50;;;33.17;;
18689;SDS011;9782;52.930;15.562;2023-02-15T08:13:53;83.40;;;33.63;;
18689;SDS011;9782;52.930;15.562;2023-02-15T08:16:26;67.57;;;30.70;;
18689;SDS011;9782;52.930;15.562;2023-02-15T08:18:57;74.27;;;31.60;;
18689;SDS011;9782;52.930;15.562;2023-02-15T08:21:26;70.13;;;29.30;;
18689;SDS011;9782;52.930;15.562;2023-02-15T08:23:54;82.47;;;35.70;;
18689;SDS011;9782;52.930;15.562;2023-02-15T08:26:21;75.67;;;33.43;;
18689;SDS011;9782;52.930;15.562;2023-02-15T08:28:48;84.73;;;35.50;;
18689;SDS011;9782;52.930;15.562;2023-02-15T08:31:16;67.13;;;30.53;;
18689;SDS011;9782;52.930;15.562;2023-02-15T08:33:45;63.23;;;29.93;;
18689;SDS011;9782;52.930;15.562;2023-02-15T08:36:14;72.97;;;33.00;;
18689;SDS011;9782;52.930;15.562;2023-02-15T08:38:42;65.83;;;32.13;;
18689;SDS011;9782;52.930;15.562;2023-02-15T08:41:13;67.73;;;32.47;;
18689;SDS011;9782;52.930;15.562;2023-02-15T08:43:41;93.10;;;44.53;;
18689;SDS011;9782;52.930;15.562;2023-02-15T08:46:09;82.43;;;38.03;;
18689;SDS011;9782;52.930;15.562;2023-02-15T08:48:37;75.57;;;36.83;;
18689;SDS011;9782;52.930;15.562;2023-02-15T08:51:06;66.87;;;32.23;;
18689;SDS011;9782;52.930;15.562;2023-02-15T08:53:35;73.70;;;34.33;;
18689;SDS011;9782;52.930;15.562;2023-02-15T08:56:03;79.57;;;35.57;;
18689;SDS011;9782;52.930;15.562;2023-02-15T08:58:31;67.90;;;33.70;;
18689;SDS011;9782;52.930;15.562;2023-02-15T09:00:58;68.70;;;33.13;;
18689;SDS011;9782;52.930;15.562;2023-02-15T09:03:27;70.57;;;31.80;;
18689;SDS011;9782;52.930;15.562;2023-02-15T09:05:58;73.00;;;33.50;;
18689;SDS011;9782;52.930;15.562;2023-02-15T09:08:27;66.87;;;33.13;;
18689;SDS011;9782;52.930;15.562;2023-02-15T09:11:03;76.37;;;36.90;;
18689;SDS011;9782;52.930;15.562;2023-02-15T09:13:31;74.13;;;33.53;;
18689;SDS011;9782;52.930;15.562;2023-02-15T09:15:59;66.67;;;32.10;;
18689;SDS011;9782;52.930;15.562;2023-02-15T09:18:27;61.20;;;29.40;;
18689;SDS011;9782;52.930;15.562;2023-02-15T09:20:55;66.40;;;33.03;;
18689;SDS011;9782;52.930;15.562;2023-02-15T09:23:22;68.20;;;32.73;;
18689;SDS011;9782;52.930;15.562;2023-02-15T09:25:51;69.27;;;33.53;;
18689;SDS011;9782;52.930;15.562;2023-02-15T09:28:18;74.10;;;36.00;;
18689;SDS011;9782;52.930;15.562;2023-02-15T09:30:45;72.73;;;34.37;;
18689;SDS011;9782;52.930;15.562;2023-02-15T09:33:11;72.83;;;35.50;;
18689;SDS011;9782;52.930;15.562;2023-02-15T09:35:39;61.43;;;32.03;;
18689;SDS011;9782;52.930;15.562;2023-02-15T09:38:06;73.83;;;35.63;;
18689;SDS011;9782;52.930;15.562;2023-02-15T09:40:35;75.30;;;35.77;;
18689;SDS011;9782;52.930;15.562;2023-02-15T09:43:14;78.37;;;37.40;;
18689;SDS011;9782;52.930;15.562;2023-02-15T09:46:00;68.03;;;33.90;;
18689;SDS011;9782;52.930;15.562;2023-02-15T10:20:05;59.10;;;30.80;;
18689;SDS011;9782;52.930;15.562;2023-02-15T10:22:46;54.20;;;28.43;;
18689;SDS011;9782;52.930;15.562;2023-02-15T10:25:27;61.50;;;29.93;;
18689;SDS011;9782;52.930;15.562;2023-02-15T10:28:01;60.17;;;28.17;;
18689;SDS011;9782;52.930;15.562;2023-02-15T10:30:32;53.87;;;28.10;;
18689;SDS011;9782;52.930;15.562;2023-02-15T10:33:09;58.00;;;30.07;;
18689;SDS011;9782;52.930;15.562;2023-02-15T10:35:47;55.13;;;28.47;;
18689;SDS011;9782;52.930;15.562;2023-02-15T10:38:21;57.40;;;29.43;;
18689;SDS011;9782;52.930;15.562;2023-02-15T10:41:01;60.43;;;29.77;;
18689;SDS011;9782;52.930;15.562;2023-02-15T10:43:41;58.10;;;30.83;;
18689;SDS011;9782;52.930;15.562;2023-02-15T10:46:24;57.80;;;26.50;;
18689;SDS011;9782;52.930;15.562;2023-02-15T10:49:10;55.63;;;28.90;;
18689;SDS011;9782;52.930;15.562;2023-02-15T10:51:54;57.73;;;28.80;;
18689;SDS011;9782;52.930;15.562;2023-02-15T10:54:35;54.97;;;27.80;;
18689;SDS011;9782;52.930;15.562;2023-02-15T10:57:09;58.53;;;29.60;;
18689;SDS011;9782;52.930;15.562;2023-02-15T11:02:34;56.50;;;28.73;;
18689;SDS011;9782;52.930;15.562;2023-02-15T11:05:21;51.90;;;26.63;;
18689;SDS011;9782;52.930;15.562;2023-02-15T11:07:59;49.43;;;25.43;;
18689;SDS011;9782;52.930;15.562;2023-02-15T11:10:30;52.27;;;27.23;;
18689;SDS011;9782;52.930;15.562;2023-02-15T11:13:02;52.20;;;27.27;;
18689;SDS011;9782;52.930;15.562;2023-02-15T11:15:34;47.63;;;26.07;;
18689;SDS011;9782;52.930;15.562;2023-02-15T11:18:06;47.37;;;25.33;;
18689;SDS011;9782;52.930;15.562;2023-02-15T11:20:41;57.63;;;28.13;;
18689;SDS011;9782;52.930;15.562;2023-02-15T11:23:14;48.73;;;25.77;;
18689;SDS011;9782;52.930;15.562;2023-02-15T11:25:44;53.97;;;27.57;;
18689;SDS011;9782;52.930;15.562;2023-02-15T11:28:18;51.97;;;26.57;;
18689;SDS011;9782;52.930;15.562;2023-02-15T11:30:50;48.30;;;25.13;;
18689;SDS011;9782;52.930;15.562;2023-02-15T11:33:21;49.33;;;25.27;;
18689;SDS011;9782;52.930;15.562;2023-02-15T11:35:53;46.87;;;24.63;;
18689;SDS011;9782;52.930;15.562;2023-02-15T11:38:27;47.80;;;25.43;;
18689;SDS011;9782;52.930;15.562;2023-02-15T11:40:59;44.43;;;23.03;;
18689;SDS011;9782;52.930;15.562;2023-02-15T11:43:31;44.77;;;24.00;;
18689;SDS011;9782;52.930;15.562;2023-02-15T11:46:02;46.93;;;23.77;;
18689;SDS011;9782;52.930;15.562;2023-02-15T11:48:29;45.13;;;24.57;;
18689;SDS011;9782;52.930;15.562;2023-02-15T11:50:57;47.70;;;24.13;;
18689;SDS011;9782;52.930;15.562;2023-02-15T11:53:26;47.70;;;24.97;;
18689;SDS011;9782;52.930;15.562;2023-02-15T11:55:58;53.20;;;25.10;;
18689;SDS011;9782;52.930;15.562;2023-02-15T11:58:29;51.13;;;26.43;;
18689;SDS011;9782;52.930;15.562;2023-02-15T12:01:00;49.50;;;24.27;;
18689;SDS011;9782;52.930;15.562;2023-02-15T12:03:39;45.80;;;23.60;;
18689;SDS011;9782;52.930;15.562;2023-02-15T12:06:13;49.03;;;24.37;;
18689;SDS011;9782;52.930;15.562;2023-02-15T12:08:48;45.00;;;24.30;;
18689;SDS011;9782;52.930;15.562;2023-02-15T12:11:21;43.93;;;23.60;;
18689;SDS011;9782;52.930;15.562;2023-02-15T12:13:56;45.10;;;23.87;;
18689;SDS011;9782;52.930;15.562;2023-02-15T12:16:24;45.50;;;24.63;;
18689;SDS011;9782;52.930;15.562;2023-02-15T12:18:52;46.63;;;24.73;;
18689;SDS011;9782;52.930;15.562;2023-02-15T12:21:25;42.23;;;23.43;;
18689;SDS011;9782;52.930;15.562;2023-02-15T12:23:57;45.13;;;24.50;;
18689;SDS011;9782;52.930;15.562;2023-02-15T12:26:27;43.87;;;23.13;;
18689;SDS011;9782;52.930;15.562;2023-02-15T12:28:56;45.80;;;23.07;;
18689;SDS011;9782;52.930;15.562;2023-02-15T12:31:27;47.00;;;24.40;;
18689;SDS011;9782;52.930;15.562;2023-02-15T12:33:57;50.23;;;25.63;;
18689;SDS011;9782;52.930;15.562;2023-02-15T12:36:29;47.13;;;24.77;;
18689;SDS011;9782;52.930;15.562;2023-02-15T12:39:03;46.03;;;24.83;;
18689;SDS011;9782;52.930;15.562;2023-02-15T12:41:43;46.87;;;25.60;;
18689;SDS011;9782;52.930;15.562;2023-02-15T12:44:15;50.40;;;25.63;;
18689;SDS011;9782;52.930;15.562;2023-02-15T12:46:53;45.67;;;25.07;;
18689;SDS011;9782;52.930;15.562;2023-02-15T12:49:23;51.13;;;26.03;;
18689;SDS011;9782;52.930;15.562;2023-02-15T12:51:51;44.77;;;24.20;;
18689;SDS011;9782;52.930;15.562;2023-02-15T12:54:36;46.90;;;25.13;;
18689;SDS011;9782;52.930;15.562;2023-02-15T12:57:17;49.00;;;25.23;;
18689;SDS011;9782;52.930;15.562;2023-02-15T12:59:50;52.10;;;26.03;;
18689;SDS011;9782;52.930;15.562;2023-02-15T13:02:21;53.03;;;25.47;;
18689;SDS011;9782;52.930;15.562;2023-02-15T13:04:50;47.57;;;25.47;;
18689;SDS011;9782;52.930;15.562;2023-02-15T13:07:17;48.60;;;25.20;;
18689;SDS011;9782;52.930;15.562;2023-02-15T13:09:46;45.50;;;24.00;;
18689;SDS011;9782;52.930;15.562;2023-02-15T13:12:16;45.50;;;24.17;;
18689;SDS011;9782;52.930;15.562;2023-02-15T13:14:46;51.27;;;25.57;;
18689;SDS011;9782;52.930;15.562;2023-02-15T13:17:16;47.70;;;25.43;;
18689;SDS011;9782;52.930;15.562;2023-02-15T13:19:49;46.60;;;23.30;;
18689;SDS011;9782;52.930;15.562;2023-02-15T13:22:19;44.27;;;24.50;;
18689;SDS011;9782;52.930;15.562;2023-02-15T13:24:51;45.97;;;24.03;;
18689;SDS011;9782;52.930;15.562;2023-02-15T13:27:22;46.90;;;24.33;;
18689;SDS011;9782;52.930;15.562;2023-02-15T13:29:54;47.83;;;25.17;;
18689;SDS011;9782;52.930;15.562;2023-02-15T13:32:26;45.67;;;25.20;;
18689;SDS011;9782;52.930;15.562;2023-02-15T13:34:56;54.60;;;28.37;;
18689;SDS011;9782;52.930;15.562;2023-02-15T13:37:34;45.93;;;25.50;;
18689;SDS011;9782;52.930;15.562;2023-02-15T13:40:33;55.80;;;27.27;;
18689;SDS011;9782;52.930;15.562;2023-02-15T13:43:11;49.10;;;24.87;;
18689;SDS011;9782;52.930;15.562;2023-02-15T13:45:51;50.43;;;25.23;;
18689;SDS011;9782;52.930;15.562;2023-02-15T13:48:29;46.07;;;25.80;;
18689;SDS011;9782;52.930;15.562;2023-02-15T13:51:08;54.93;;;27.70;;
18689;SDS011;9782;52.930;15.562;2023-02-15T13:53:47;48.67;;;25.40;;
18689;SDS011;9782;52.930;15.562;2023-02-15T13:56:35;55.50;;;31.33;;
18689;SDS011;9782;52.930;15.562;2023-02-15T13:59:17;54.57;;;27.70;;
18689;SDS011;9782;52.930;15.562;2023-02-15T14:01:54;52.13;;;27.57;;
18689;SDS011;9782;52.930;15.562;2023-02-15T14:04:31;51.70;;;29.50;;
18689;SDS011;9782;52.930;15.562;2023-02-15T14:07:25;53.33;;;27.70;;
18689;SDS011;9782;52.930;15.562;2023-02-15T14:10:19;50.90;;;26.37;;
18689;SDS011;9782;52.930;15.562;2023-02-15T14:12:59;46.33;;;25.10;;
18689;SDS011;9782;52.930;15.562;2023-02-15T14:15:49;49.07;;;25.70;;
18689;SDS011;9782;52.930;15.562;2023-02-15T14:18:21;46.43;;;25.23;;
18689;SDS011;9782;52.930;15.562;2023-02-15T14:21:03;48.77;;;25.50;;
18689;SDS011;9782;52.930;15.562;2023-02-15T14:23:38;49.63;;;27.63;;
18689;SDS011;9782;52.930;15.562;2023-02-15T14:26:15;46.43;;;26.10;;
18689;SDS011;9782;52.930;15.562;2023-02-15T14:28:49;44.60;;;25.47;;
18689;SDS011;9782;52.930;15.562;2023-02-15T14:31:24;52.43;;;28.30;;
18689;SDS011;9782;52.930;15.562;2023-02-15T14:33:55;56.27;;;32.20;;
18689;SDS011;9782;52.930;15.562;2023-02-15T14:36:23;53.10;;;28.93;;
18689;SDS011;9782;52.930;15.562;2023-02-15T14:38:59;50.43;;;27.17;;
18689;SDS011;9782;52.930;15.562;2023-02-15T14:41:57;51.93;;;28.73;;
18689;SDS011;9782;52.930;15.562;2023-02-15T14:44:27;48.63;;;27.87;;
18689;SDS011;9782;52.930;15.562;2023-02-15T14:47:04;53.60;;;30.73;;
18689;SDS011;9782;52.930;15.562;2023-02-15T14:49:35;61.17;;;33.20;;
18689;SDS011;9782;52.930;15.562;2023-02-15T14:52:04;59.93;;;32.93;;
18689;SDS011;9782;52.930;15.562;2023-02-15T14:57:24;63.27;;;33.03;;
18689;SDS011;9782;52.930;15.562;2023-02-15T14:59:54;62.17;;;32.87;;
18689;SDS011;9782;52.930;15.562;2023-02-15T15:02:24;73.50;;;38.40;;
18689;SDS011;9782;52.930;15.562;2023-02-15T15:04:55;61.43;;;35.00;;
18689;SDS011;9782;52.930;15.562;2023-02-15T15:07:26;60.23;;;30.80;;
18689;SDS011;9782;52.930;15.562;2023-02-15T15:09:58;97.90;;;52.83;;
18689;SDS011;9782;52.930;15.562;2023-02-15T15:12:38;67.07;;;37.97;;
18689;SDS011;9782;52.930;15.562;2023-02-15T15:15:09;74.17;;;42.20;;
18689;SDS011;9782;52.930;15.562;2023-02-15T15:17:52;67.80;;;39.00;;
18689;SDS011;9782;52.930;15.562;2023-02-15T15:20:40;74.47;;;40.63;;
18689;SDS011;9782;52.930;15.562;2023-02-15T15:26:22;80.07;;;42.77;;
18689;SDS011;9782;52.930;15.562;2023-02-15T15:28:55;111.17;;;62.23;;
18689;SDS011;9782;52.930;15.562;2023-02-15T15:31:26;71.97;;;40.20;;
18689;SDS011;9782;52.930;15.562;2023-02-15T15:37:04;79.77;;;44.00;;
18689;SDS011;9782;52.930;15.562;2023-02-15T15:43:09;153.63;;;80.73;;
18689;SDS011;9782;52.930;15.562;2023-02-15T15:49:06;86.30;;;46.60;;
18689;SDS011;9782;52.930;15.562;2023-02-15T15:51:37;97.90;;;55.30;;
18689;SDS011;9782;52.930;15.562;2023-02-15T15:54:11;89.83;;;52.60;;
18689;SDS011;9782;52.930;15.562;2023-02-15T15:56:42;75.77;;;43.80;;